Time;durP1;ratioP1;P1;durP2;ratioP2;P2;SDS_P1;SDS_P2;PMS_P1;PMS_P2;Temp;Humidity;BMP_temperature;BMP_pressure;BME280_temperature;BME280_humidity;BME280_pressure;Samples;Min_cycle;Max_cycle;Signal;HPM_P1;HPM_P2
2022/12/06 00:01:02;;;;;;;6.88;4.47;;;;;;;;;;4881194;29;20139;-62
2022/12/06 00:03:29;;;;;;;3.90;3.50;;;;;;;;;;4865546;29;20085;-61
2022/12/06 00:06:00;;;;;;;4.32;3.85;;;;;;;;;;4880426;29;20462;-61
2022/12/06 00:08:26;;;;;;;5.30;4.22;;;;;;;;;;4897854;29;20048;-62
2022/12/06 00:10:52;;;;;;;4.78;3.42;;;;;;;;;;4880604;29;20390;-62
2022/12/06 00:13:19;;;;;;;4.07;3.55;;;;;;;;;;4897507;29;20075;-62
2022/12/06 00:15:45;;;;;;;4.82;4.00;;;;;;;;;;4897031;29;20056;-60
2022/12/06 00:18:12;;;;;;;5.07;4.20;;;;;;;;;;4897710;29;20045;-60
2022/12/06 00:20:38;;;;;;;4.40;3.33;;;;;;;;;;4897925;29;20072;-61
2022/12/06 00:23:05;;;;;;;4.82;3.72;;;;;;;;;;4897873;29;20053;-61
2022/12/06 00:25:34;;;;;;;5.97;3.72;;;;;;;;;;4897072;29;20044;-60
2022/12/06 00:28:00;;;;;;;4.20;3.45;;;;;;;;;;4890602;29;20085;-60
2022/12/06 00:30:27;;;;;;;4.07;3.40;;;;;;;;;;4911264;29;20052;-59
2022/12/06 00:32:53;;;;;;;3.78;3.05;;;;;;;;;;4885703;29;20139;-61
2022/12/06 00:35:20;;;;;;;3.50;3.20;;;;;;;;;;4897235;29;20053;-61
2022/12/06 00:37:46;;;;;;;3.33;2.97;;;;;;;;;;4897782;29;20048;-62
2022/12/06 00:40:13;;;;;;;3.85;3.03;;;;;;;;;;4897841;29;20482;-64
2022/12/06 00:42:39;;;;;;;3.17;2.67;;;;;;;;;;4880669;29;20136;-62
2022/12/06 00:45:06;;;;;;;2.63;2.40;;;;;;;;;;4896764;29;20519;-62
2022/12/06 00:47:33;;;;;;;4.35;2.75;;;;;;;;;;4880746;29;20036;-62
2022/12/06 00:49:59;;;;;;;3.65;2.80;;;;;;;;;;4864701;29;20143;-63
2022/12/06 00:52:26;;;;;;;3.70;3.00;;;;;;;;;;4897017;29;20040;-62
2022/12/06 00:54:52;;;;;;;5.22;3.45;;;;;;;;;;4897129;29;20052;-62
2022/12/06 00:57:19;;;;;;;4.32;3.60;;;;;;;;;;4882029;29;20057;-62
2022/12/06 00:59:45;;;;;;;4.57;3.47;;;;;;;;;;4869410;29;20109;-62
2022/12/06 01:02:12;;;;;;;4.97;3.50;;;;;;;;;;4885195;29;20048;-62
2022/12/06 01:04:38;;;;;;;6.50;4.07;;;;;;;;;;4884418;29;20060;-61
2022/12/06 01:07:05;;;;;;;5.38;3.58;;;;;;;;;;4884694;29;20052;-62
2022/12/06 01:09:31;;;;;;;5.40;3.60;;;;;;;;;;4902018;29;20382;-62
2022/12/06 01:11:57;;;;;;;5.75;3.80;;;;;;;;;;4899544;23;20133;-60
2022/12/06 01:14:24;;;;;;;4.93;3.15;;;;;;;;;;4901620;29;20048;-60
2022/12/06 01:16:51;;;;;;;5.07;3.75;;;;;;;;;;4914888;29;20048;-60
2022/12/06 01:19:17;;;;;;;5.43;4.13;;;;;;;;;;4898481;29;20372;-60
2022/12/06 01:21:44;;;;;;;5.15;3.60;;;;;;;;;;4912968;29;20045;-60
2022/12/06 01:24:10;;;;;;;5.05;3.60;;;;;;;;;;4900264;29;20056;-60
2022/12/06 01:26:36;;;;;;;6.28;3.95;;;;;;;;;;4886277;29;20056;-60
2022/12/06 01:29:03;;;;;;;4.55;3.95;;;;;;;;;;4887918;29;20049;-60
2022/12/06 01:31:29;;;;;;;6.28;4.30;;;;;;;;;;4907159;29;20107;-61
2022/12/06 01:34:02;;;;;;;6.37;4.23;;;;;;;;;;4905511;29;20080;-61
2022/12/06 01:36:29;;;;;;;7.78;4.43;;;;;;;;;;4902847;29;20048;-60
2022/12/06 01:38:56;;;;;;;7.25;4.18;;;;;;;;;;4902681;29;20098;-61
2022/12/06 01:41:24;;;;;;;4.93;3.80;;;;;;;;;;4902318;29;20041;-60
2022/12/06 01:43:50;;;;;;;5.93;4.10;;;;;;;;;;4902327;29;20500;-60
2022/12/06 01:46:24;;;;;;;5.93;3.58;;;;;;;;;;4885728;29;20048;-60
2022/12/06 01:48:52;;;;;;;6.95;4.13;;;;;;;;;;4903116;29;20060;-61
2022/12/06 01:51:19;;;;;;;5.72;3.85;;;;;;;;;;4885590;29;20089;-60
2022/12/06 01:53:46;;;;;;;6.32;4.30;;;;;;;;;;4906217;29;20044;-61
2022/12/06 01:56:13;;;;;;;5.75;4.00;;;;;;;;;;4905741;29;20052;-60
2022/12/06 01:58:40;;;;;;;6.88;4.35;;;;;;;;;;4888938;29;20048;-60
2022/12/06 02:01:08;;;;;;;5.95;4.63;;;;;;;;;;4906032;29;20101;-60
2022/12/06 02:03:35;;;;;;;5.07;4.22;;;;;;;;;;4889352;29;20050;-60
2022/12/06 02:06:05;;;;;;;4.90;3.72;;;;;;;;;;4888853;29;20056;-60
2022/12/06 02:08:31;;;;;;;5.53;4.00;;;;;;;;;;4905651;29;20045;-60
2022/12/06 02:11:00;;;;;;;6.20;4.38;;;;;;;;;;4905958;29;20095;-61
2022/12/06 02:13:26;;;;;;;5.22;3.95;;;;;;;;;;4901144;29;20504;-60
2022/12/06 02:16:02;;;;;;;5.55;4.32;;;;;;;;;;4885585;29;20049;-60
2022/12/06 02:18:33;;;;;;;4.25;3.65;;;;;;;;;;4903132;29;20104;-60
2022/12/06 02:21:00;;;;;;;4.70;3.40;;;;;;;;;;4905847;29;20100;-60
2022/12/06 02:23:26;;;;;;;4.60;3.80;;;;;;;;;;4904790;29;20219;-60
2022/12/06 02:26:02;;;;;;;4.47;3.72;;;;;;;;;;4883315;29;20454;-60
2022/12/06 02:29:00;;;;;;;7.25;3.90;;;;;;;;;;4900600;29;20470;-60
2022/12/06 02:31:35;;;;;;;4.43;3.67;;;;;;;;;;4858394;29;20095;-61
2022/12/06 02:34:07;;;;;;;4.78;3.78;;;;;;;;;;4883867;29;20055;-60
2022/12/06 02:36:34;;;;;;;4.68;3.50;;;;;;;;;;4899233;29;20096;-61
2022/12/06 02:39:19;;;;;;;4.90;3.92;;;;;;;;;;4899314;29;20048;-61
2022/12/06 02:42:12;;;;;;;4.20;3.47;;;;;;;;;;4882209;29;20059;-61
2022/12/06 02:44:41;;;;;;;4.53;3.88;;;;;;;;;;4895788;29;20056;-61
2022/12/06 02:47:10;;;;;;;5.43;3.92;;;;;;;;;;4882302;29;20041;-61
2022/12/06 02:49:38;;;;;;;7.53;4.10;;;;;;;;;;4899001;29;20077;-61
2022/12/06 02:52:04;;;;;;;5.00;3.80;;;;;;;;;;4898807;29;20055;-61
2022/12/06 02:54:31;;;;;;;4.68;3.63;;;;;;;;;;4898902;29;20051;-62
2022/12/06 02:56:58;;;;;;;5.47;3.78;;;;;;;;;;4881554;29;20100;-62
2022/12/06 02:59:24;;;;;;;6.63;4.63;;;;;;;;;;4881873;29;20052;-62
2022/12/06 03:01:54;;;;;;;6.38;4.03;;;;;;;;;;4898662;29;20048;-62
2022/12/06 03:04:45;;;;;;;7.38;4.72;;;;;;;;;;4899067;29;20571;-61
2022/12/06 03:07:17;;;;;;;4.53;3.67;;;;;;;;;;4881531;29;20055;-61
2022/12/06 03:10:09;;;;;;;4.72;3.95;;;;;;;;;;4898649;29;20037;-60
2022/12/06 03:13:02;;;;;;;6.60;3.85;;;;;;;;;;4898490;29;20044;-62
2022/12/06 03:15:32;;;;;;;4.90;3.72;;;;;;;;;;4853098;29;20049;-61
2022/12/06 03:18:01;;;;;;;4.15;3.75;;;;;;;;;;4898513;29;20048;-61
2022/12/06 03:20:41;;;;;;;5.80;4.43;;;;;;;;;;4898445;29;20056;-61
2022/12/06 03:23:15;;;;;;;4.88;3.88;;;;;;;;;;4898329;29;20416;-60
2022/12/06 03:25:43;;;;;;;6.40;4.03;;;;;;;;;;4897741;29;20520;-60
2022/12/06 03:28:12;;;;;;;5.70;4.00;;;;;;;;;;4898363;29;20048;-60
2022/12/06 03:30:39;;;;;;;4.97;3.47;;;;;;;;;;4881330;29;20171;-61
2022/12/06 03:33:06;;;;;;;4.15;3.25;;;;;;;;;;4897919;29;20048;-61
2022/12/06 03:35:33;;;;;;;4.72;3.58;;;;;;;;;;4897567;29;20049;-61
2022/12/06 03:38:03;;;;;;;4.85;3.55;;;;;;;;;;4881435;29;20069;-60
2022/12/06 03:40:31;;;;;;;6.10;3.92;;;;;;;;;;4898100;29;20105;-61
2022/12/06 03:42:59;;;;;;;4.32;3.63;;;;;;;;;;4881251;29;20041;-61
2022/12/06 03:45:48;;;;;;;6.22;4.22;;;;;;;;;;4897259;29;20048;-62
2022/12/06 03:48:18;;;;;;;5.03;3.53;;;;;;;;;;4897920;29;20120;-61
2022/12/06 03:50:49;;;;;;;4.30;3.90;;;;;;;;;;4897874;29;20052;-62
2022/12/06 03:53:22;;;;;;;5.45;4.10;;;;;;;;;;4897816;29;20120;-62
2022/12/06 03:55:48;;;;;;;4.97;3.83;;;;;;;;;;4880493;29;20131;-61
2022/12/06 03:58:15;;;;;;;5.78;4.05;;;;;;;;;;4880852;29;20061;-62
2022/12/06 04:00:41;;;;;;;5.47;3.95;;;;;;;;;;4897759;29;20040;-61
2022/12/06 04:03:08;;;;;;;4.88;3.92;;;;;;;;;;4897888;29;20048;-60
2022/12/06 04:05:34;;;;;;;4.55;3.67;;;;;;;;;;4897544;29;20569;-62
2022/12/06 04:08:00;;;;;;;4.70;3.53;;;;;;;;;;4898061;29;20482;-62
2022/12/06 04:10:27;;;;;;;4.57;4.05;;;;;;;;;;4897902;29;20084;-62
2022/12/06 04:12:59;;;;;;;5.15;4.00;;;;;;;;;;4897324;29;20387;-62
2022/12/06 04:15:27;;;;;;;4.25;3.67;;;;;;;;;;4880100;29;20386;-62
2022/12/06 04:23:39;;;;;;;5.85;3.80;;;;;;;;;;4897712;29;20127;-62
2022/12/06 04:26:08;;;;;;;4.88;3.92;;;;;;;;;;4880392;29;20450;-62
2022/12/06 04:39:35;;;;;;;5.03;4.00;;;;;;;;;;4897403;29;20108;-62
2022/12/06 04:44:46;;;;;;;6.30;4.32;;;;;;;;;;4897366;29;20036;-60
2022/12/06 04:47:13;;;;;;;7.10;4.28;;;;;;;;;;4896882;29;20037;-61
2022/12/06 04:49:40;;;;;;;8.32;4.70;;;;;;;;;;4880586;29;20041;-61
2022/12/06 04:52:07;;;;;;;7.80;5.22;;;;;;;;;;4897191;29;20051;-61
2022/12/06 04:54:34;;;;;;;6.32;4.72;;;;;;;;;;4880734;29;20045;-61
2022/12/06 04:57:01;;;;;;;5.50;4.47;;;;;;;;;;4896676;29;20056;-62
2022/12/06 04:59:27;;;;;;;5.40;3.90;;;;;;;;;;4897315;29;20054;-62
2022/12/06 05:01:54;;;;;;;7.00;4.68;;;;;;;;;;5367857;23;20500;-61
2022/12/06 05:04:21;;;;;;;4.90;4.28;;;;;;;;;;4883470;29;20044;-60
2022/12/06 05:06:48;;;;;;;5.85;4.38;;;;;;;;;;4915244;29;20040;-61
2022/12/06 05:09:14;;;;;;;5.38;4.28;;;;;;;;;;4915972;29;20040;-60
2022/12/06 05:11:41;;;;;;;6.43;4.60;;;;;;;;;;4915896;29;20048;-60
2022/12/06 05:14:07;;;;;;;7.53;4.85;;;;;;;;;;4915830;29;20048;-61
2022/12/06 05:16:34;;;;;;;6.35;4.78;;;;;;;;;;4898669;29;20119;-61
2022/12/06 05:19:00;;;;;;;6.30;4.28;;;;;;;;;;4915814;29;20050;-61
2022/12/06 05:21:27;;;;;;;7.05;4.88;;;;;;;;;;4898872;29;20389;-60
2022/12/06 05:23:54;;;;;;;6.38;4.72;;;;;;;;;;4915751;29;20115;-61
2022/12/06 05:26:22;;;;;;;6.20;4.70;;;;;;;;;;4915169;29;20048;-61
2022/12/06 05:28:49;;;;;;;7.53;4.95;;;;;;;;;;4919170;29;20067;-62
2022/12/06 05:31:15;;;;;;;6.30;4.68;;;;;;;;;;4919524;29;20051;-60
2022/12/06 05:33:42;;;;;;;7.18;4.65;;;;;;;;;;4919562;29;20113;-61
2022/12/06 05:36:10;;;;;;;6.07;4.70;;;;;;;;;;4919023;29;20099;-60
2022/12/06 05:38:36;;;;;;;7.25;4.75;;;;;;;;;;4902889;29;20100;-61
2022/12/06 05:41:03;;;;;;;7.32;5.30;;;;;;;;;;4919403;29;20048;-61
2022/12/06 05:43:30;;;;;;;7.82;5.50;;;;;;;;;;4918999;29;20429;-61
2022/12/06 05:45:57;;;;;;;6.55;4.90;;;;;;;;;;4918494;29;20044;-61
2022/12/06 05:48:24;;;;;;;5.68;4.50;;;;;;;;;;4919265;29;20055;-61
2022/12/06 05:50:50;;;;;;;7.05;5.10;;;;;;;;;;4919476;29;20090;-61
2022/12/06 05:53:17;;;;;;;7.63;5.20;;;;;;;;;;4902293;29;20044;-61
2022/12/06 05:55:43;;;;;;;7.60;5.95;;;;;;;;;;4918698;29;20123;-61
2022/12/06 05:58:10;;;;;;;6.88;5.60;;;;;;;;;;4902400;29;20123;-61
2022/12/06 06:00:36;;;;;;;7.60;5.68;;;;;;;;;;4919088;29;20055;-61
2022/12/06 06:03:03;;;;;;;7.72;5.80;;;;;;;;;;4901985;29;20040;-61
2022/12/06 06:05:30;;;;;;;7.70;5.65;;;;;;;;;;4918492;29;20048;-61
2022/12/06 06:07:56;;;;;;;9.27;6.25;;;;;;;;;;4902097;29;20061;-61
2022/12/06 06:10:23;;;;;;;7.18;5.30;;;;;;;;;;4918828;29;20504;-61
2022/12/06 06:12:50;;;;;;;6.90;5.50;;;;;;;;;;4918803;29;20056;-61
2022/12/06 06:15:16;;;;;;;6.60;5.50;;;;;;;;;;4901470;29;20098;-61
2022/12/06 06:17:43;;;;;;;6.80;5.45;;;;;;;;;;4918924;29;20468;-61
2022/12/06 06:20:10;;;;;;;11.88;6.25;;;;;;;;;;4902145;29;20055;-60
2022/12/06 06:22:37;;;;;;;8.90;5.63;;;;;;;;;;4901983;29;20051;-61
2022/12/06 06:25:04;;;;;;;7.47;5.95;;;;;;;;;;4918304;29;20048;-61
2022/12/06 06:27:31;;;;;;;7.45;5.60;;;;;;;;;;4918889;29;20519;-61
2022/12/06 06:29:58;;;;;;;6.55;5.63;;;;;;;;;;4918631;29;20048;-61
2022/12/06 06:32:24;;;;;;;7.57;5.72;;;;;;;;;;4918585;29;20490;-61
2022/12/06 06:34:51;;;;;;;9.65;6.47;;;;;;;;;;4918572;29;20112;-61
2022/12/06 06:37:17;;;;;;;8.90;6.55;;;;;;;;;;4917828;29;20055;-60
2022/12/06 06:39:44;;;;;;;8.38;6.20;;;;;;;;;;4917969;29;20080;-60
2022/12/06 06:42:10;;;;;;;9.70;6.35;;;;;;;;;;4901348;29;20096;-61
2022/12/06 06:44:36;;;;;;;7.45;6.07;;;;;;;;;;4918225;29;20556;-61
2022/12/06 06:47:03;;;;;;;7.32;6.00;;;;;;;;;;4917653;29;20045;-60
2022/12/06 06:49:30;;;;;;;8.95;7.07;;;;;;;;;;4918115;29;20048;-61
2022/12/06 06:51:56;;;;;;;8.43;6.88;;;;;;;;;;4918240;29;20036;-60
2022/12/06 06:54:23;;;;;;;8.45;6.35;;;;;;;;;;4918208;29;20048;-61
2022/12/06 06:56:50;;;;;;;8.98;7.10;;;;;;;;;;4917601;29;20166;-60
2022/12/06 06:59:16;;;;;;;7.88;6.05;;;;;;;;;;4901291;29;20056;-61
2022/12/06 07:01:43;;;;;;;8.55;5.93;;;;;;;;;;4917937;29;20059;-60
2022/12/06 07:04:09;;;;;;;8.70;6.45;;;;;;;;;;4893313;29;20041;-61
2022/12/06 07:06:36;;;;;;;10.30;6.78;;;;;;;;;;4897727;29;20044;-61
2022/12/06 07:09:02;;;;;;;9.18;6.15;;;;;;;;;;4899032;29;20051;-60
2022/12/06 07:11:29;;;;;;;10.57;6.60;;;;;;;;;;4898764;29;20055;-61
2022/12/06 07:13:55;;;;;;;8.15;6.22;;;;;;;;;;4898431;29;20049;-61
2022/12/06 07:16:21;;;;;;;8.63;6.55;;;;;;;;;;4897938;29;20044;-61
2022/12/06 07:18:48;;;;;;;11.07;7.07;;;;;;;;;;4898137;29;20077;-61
2022/12/06 07:21:15;;;;;;;12.07;7.20;;;;;;;;;;4898369;29;20049;-60
2022/12/06 07:23:41;;;;;;;10.40;7.70;;;;;;;;;;4922779;23;20052;-63
2022/12/06 07:26:12;;;;;;;11.73;8.05;;;;;;;;;;4917151;29;20393;-62
2022/12/06 07:28:39;;;;;;;10.48;6.90;;;;;;;;;;4917915;29;20104;-63
2022/12/06 07:31:08;;;;;;;10.23;7.35;;;;;;;;;;4918051;29;20444;-63
2022/12/06 07:33:35;;;;;;;10.57;7.90;;;;;;;;;;4900560;29;20517;-62
2022/12/06 07:36:02;;;;;;;14.25;8.25;;;;;;;;;;4917046;29;20098;-63
2022/12/06 07:38:38;;;;;;;10.40;7.35;;;;;;;;;;4917525;29;20173;-63
2022/12/06 07:44:59;;;;;;;12.90;8.00;;;;;;;;;;4917420;29;20477;-62
2022/12/06 07:46:38;;;;;;;12.65;8.45;;;;;;;;;;4916967;29;20051;-62
2022/12/06 07:49:05;;;;;;;12.75;8.20;;;;;;;;;;4917397;29;20043;-63
2022/12/06 07:51:32;;;;;;;10.52;7.13;;;;;;;;;;4917100;29;20044;-63
2022/12/06 07:53:58;;;;;;;12.40;8.25;;;;;;;;;;4917577;29;20426;-63
2022/12/06 07:56:24;;;;;;;10.65;7.18;;;;;;;;;;4916891;29;20066;-63
2022/12/06 07:58:51;;;;;;;12.60;8.80;;;;;;;;;;4900167;29;20060;-63
2022/12/06 08:01:18;;;;;;;12.93;8.05;;;;;;;;;;4884689;29;20048;-63
2022/12/06 08:03:44;;;;;;;10.48;7.80;;;;;;;;;;4916939;29;20457;-62
2022/12/06 08:06:11;;;;;;;11.48;8.18;;;;;;;;;;4916731;29;20040;-62
2022/12/06 08:08:37;;;;;;;11.02;7.07;;;;;;;;;;4900063;29;20100;-63
2022/12/06 08:11:05;;;;;;;12.48;8.00;;;;;;;;;;4916927;29;20453;-63
2022/12/06 08:13:32;;;;;;;10.40;7.47;;;;;;;;;;4916966;29;20104;-64
2022/12/06 08:15:59;;;;;;;11.63;7.45;;;;;;;;;;4916271;29;20044;-64
2022/12/06 08:18:25;;;;;;;9.88;7.82;;;;;;;;;;4916861;29;20390;-64
2022/12/06 08:20:52;;;;;;;9.95;6.93;;;;;;;;;;4916939;29;20071;-64
2022/12/06 08:23:18;;;;;;;11.38;7.97;;;;;;;;;;4900000;29;20670;-64
2022/12/06 08:25:45;;;;;;;11.68;8.00;;;;;;;;;;4916289;29;20405;-63
2022/12/06 08:28:11;;;;;;;12.63;8.57;;;;;;;;;;4917391;29;20532;-64
2022/12/06 08:30:38;;;;;;;10.52;7.63;;;;;;;;;;4900120;29;20040;-64
2022/12/06 08:33:04;;;;;;;10.07;6.82;;;;;;;;;;4916976;29;20122;-64
2022/12/06 08:35:31;;;;;;;10.50;7.55;;;;;;;;;;4916532;29;20040;-64
2022/12/06 08:37:58;;;;;;;11.63;8.25;;;;;;;;;;4899910;29;20134;-64
2022/12/06 08:40:25;;;;;;;12.73;8.25;;;;;;;;;;4917125;29;20715;-64
2022/12/06 08:42:51;;;;;;;11.15;7.72;;;;;;;;;;4916742;29;20044;-64
2022/12/06 08:45:18;;;;;;;11.45;7.60;;;;;;;;;;4899609;29;20040;-64
2022/12/06 08:47:44;;;;;;;12.60;8.27;;;;;;;;;;4916591;29;20044;-64
2022/12/06 08:50:11;;;;;;;11.15;7.43;;;;;;;;;;4899796;29;20048;-64
2022/12/06 08:52:37;;;;;;;15.05;7.88;;;;;;;;;;4899706;29;20032;-64
2022/12/06 08:55:04;;;;;;;11.18;8.55;;;;;;;;;;4915828;29;20461;-63
2022/12/06 08:57:31;;;;;;;11.07;7.45;;;;;;;;;;4916595;29;20040;-64
2022/12/06 08:59:57;;;;;;;9.93;7.72;;;;;;;;;;4916287;29;20071;-64
2022/12/06 09:02:24;;;;;;;12.60;8.70;;;;;;;;;;4916713;29;20051;-63
2022/12/06 09:04:51;;;;;;;11.30;7.65;;;;;;;;;;4899496;29;20132;-64
2022/12/06 09:07:18;;;;;;;10.95;8.02;;;;;;;;;;4916132;29;20036;-64
2022/12/06 09:09:47;;;;;;;10.43;7.25;;;;;;;;;;4916501;29;20047;-64
2022/12/06 09:12:14;;;;;;;13.02;8.23;;;;;;;;;;4900206;29;20107;-64
2022/12/06 09:14:40;;;;;;;15.02;8.35;;;;;;;;;;4900575;29;20050;-64
2022/12/06 09:17:07;;;;;;;13.30;8.48;;;;;;;;;;4900252;29;20416;-64
2022/12/06 09:19:33;;;;;;;12.85;8.45;;;;;;;;;;4917317;29;20059;-64
2022/12/06 09:22:00;;;;;;;10.13;7.55;;;;;;;;;;4916909;29;20040;-63
2022/12/06 09:24:26;;;;;;;12.95;8.18;;;;;;;;;;4899868;29;20440;-63
2022/12/06 09:26:53;;;;;;;12.57;8.00;;;;;;;;;;4915835;29;20063;-64
2022/12/06 09:29:19;;;;;;;10.18;7.53;;;;;;;;;;4916649;29;20048;-63
2022/12/06 09:31:46;;;;;;;11.75;8.27;;;;;;;;;;4900178;29;20048;-63
2022/12/06 09:34:12;;;;;;;12.60;8.07;;;;;;;;;;4917122;29;20048;-64
2022/12/06 09:36:45;;;;;;;11.02;8.15;;;;;;;;;;4899841;29;20500;-63
2022/12/06 09:39:20;;;;;;;12.02;8.23;;;;;;;;;;4916085;29;20044;-62
2022/12/06 09:42:05;;;;;;;13.73;8.00;;;;;;;;;;4898667;29;20099;-63
2022/12/06 09:44:40;;;;;;;15.38;7.72;;;;;;;;;;4915722;29;20040;-63
2022/12/06 09:47:24;;;;;;;10.45;7.20;;;;;;;;;;4915233;29;20497;-64
2022/12/06 09:50:07;;;;;;;12.82;8.18;;;;;;;;;;4915863;29;20103;-63
2022/12/06 09:52:43;;;;;;;9.23;7.43;;;;;;;;;;4898971;29;20044;-63
2022/12/06 09:55:15;;;;;;;12.52;7.93;;;;;;;;;;4898421;29;20044;-63
2022/12/06 09:57:52;;;;;;;11.65;7.90;;;;;;;;;;4915833;29;20047;-64
2022/12/06 10:00:21;;;;;;;11.02;7.80;;;;;;;;;;4915943;29;20048;-62
2022/12/06 10:03:07;;;;;;;11.50;8.32;;;;;;;;;;4934990;29;20040;-62
2022/12/06 10:05:56;;;;;;;12.80;8.85;;;;;;;;;;4935413;29;20032;-64
2022/12/06 10:08:46;;;;;;;13.48;9.68;;;;;;;;;;4904711;29;20075;-64
2022/12/06 10:11:31;;;;;;;13.82;10.75;;;;;;;;;;4915856;29;20306;-64
2022/12/06 10:14:06;;;;;;;12.05;8.35;;;;;;;;;;4917709;29;20111;-64
2022/12/06 10:16:36;;;;;;;21.40;14.25;;;;;;;;;;4920053;29;20044;-64
2022/12/06 10:19:08;;;;;;;22.75;14.80;;;;;;;;;;4902334;29;20055;-63
2022/12/06 10:21:38;;;;;;;17.58;12.05;;;;;;;;;;4919559;29;20040;-63
2022/12/06 10:24:11;;;;;;;12.73;8.50;;;;;;;;;;4919436;29;20043;-64
2022/12/06 10:26:44;;;;;;;12.88;9.45;;;;;;;;;;4902022;29;20524;-63
2022/12/06 10:29:16;;;;;;;11.88;9.18;;;;;;;;;;4919250;29;20091;-63
2022/12/06 10:31:56;;;;;;;12.63;9.60;;;;;;;;;;4919785;29;20058;-64
2022/12/06 10:34:26;;;;;;;12.32;8.18;;;;;;;;;;4904790;29;20060;-64
2022/12/06 10:36:52;;;;;;;9.90;8.05;;;;;;;;;;4908593;29;20070;-64
2022/12/06 10:39:22;;;;;;;14.20;9.90;;;;;;;;;;4927148;29;20072;-63
2022/12/06 10:42:02;;;;;;;8.73;7.57;;;;;;;;;;4926364;29;20048;-63
2022/12/06 10:44:31;;;;;;;8.90;7.38;;;;;;;;;;4925130;29;20044;-63
2022/12/06 10:47:08;;;;;;;9.82;7.30;;;;;;;;;;4920472;29;20044;-62
2022/12/06 10:49:38;;;;;;;8.85;6.95;;;;;;;;;;4923368;29;20044;-64
2022/12/06 10:52:12;;;;;;;7.43;6.53;;;;;;;;;;4911529;29;20052;-63
2022/12/06 10:54:39;;;;;;;9.85;7.03;;;;;;;;;;4929396;29;20036;-64
2022/12/06 10:57:10;;;;;;;8.32;6.05;;;;;;;;;;4922382;29;20056;-63
2022/12/06 10:59:47;;;;;;;10.15;6.75;;;;;;;;;;4918443;29;20052;-63
2022/12/06 11:02:36;;;;;;;28.15;11.48;;;;;;;;;;4918972;29;20052;-64
2022/12/06 11:05:05;;;;;;;10.88;6.85;;;;;;;;;;4901819;29;20564;-64
2022/12/06 11:07:38;;;;;;;10.75;6.85;;;;;;;;;;4918935;29;20100;-63
2022/12/06 11:10:14;;;;;;;10.15;6.63;;;;;;;;;;4901226;29;20036;-63
2022/12/06 11:12:40;;;;;;;11.48;7.00;;;;;;;;;;4918276;29;20045;-63
2022/12/06 11:15:19;;;;;;;8.13;6.28;;;;;;;;;;4917535;29;20044;-63
2022/12/06 11:17:47;;;;;;;10.57;7.22;;;;;;;;;;4901456;29;20104;-62
2022/12/06 11:20:25;;;;;;;9.25;6.20;;;;;;;;;;4901557;29;20092;-63
2022/12/06 11:22:58;;;;;;;11.25;7.13;;;;;;;;;;4918553;29;20667;-63
2022/12/06 11:25:27;;;;;;;9.38;6.25;;;;;;;;;;4899556;29;20044;-63
2022/12/06 11:28:20;;;;;;;10.45;7.03;;;;;;;;;;4900950;29;20044;-63
2022/12/06 11:30:48;;;;;;;8.90;6.32;;;;;;;;;;4901159;29;20042;-63
2022/12/06 11:33:15;;;;;;;10.80;6.43;;;;;;;;;;4917588;29;20059;-63
2022/12/06 11:35:44;;;;;;;7.80;5.85;;;;;;;;;;4917377;29;20044;-61
2022/12/06 11:38:11;;;;;;;8.60;6.07;;;;;;;;;;4917636;29;20044;-62
2022/12/06 11:40:41;;;;;;;8.82;5.82;;;;;;;;;;4917613;29;20040;-62
2022/12/06 11:43:11;;;;;;;9.27;5.60;;;;;;;;;;4900873;29;20039;-63
2022/12/06 11:45:39;;;;;;;10.25;6.15;;;;;;;;;;4916973;29;20056;-63
2022/12/06 11:48:14;;;;;;;8.77;5.95;;;;;;;;;;4917464;29;20040;-64
2022/12/06 11:50:42;;;;;;;8.73;6.53;;;;;;;;;;4917529;29;20055;-62
2022/12/06 11:53:20;;;;;;;7.68;5.68;;;;;;;;;;4917411;29;20040;-65
2022/12/06 11:55:49;;;;;;;11.77;6.70;;;;;;;;;;4916833;29;20044;-62
2022/12/06 11:58:29;;;;;;;10.60;6.75;;;;;;;;;;4917365;29;20592;-63
2022/12/06 12:00:55;;;;;;;10.82;6.60;;;;;;;;;;4917367;29;20040;-63
2022/12/06 12:03:27;;;;;;;11.27;6.25;;;;;;;;;;4917326;29;20044;-64
2022/12/06 12:06:06;;;;;;;29.77;17.15;;;;;;;;;;4899943;29;20088;-63
2022/12/06 12:08:33;;;;;;;13.43;10.35;;;;;;;;;;4917384;29;20044;-64
2022/12/06 12:11:01;;;;;;;13.77;8.63;;;;;;;;;;4916908;29;20099;-64
2022/12/06 12:13:43;;;;;;;8.73;6.25;;;;;;;;;;4917485;29;20048;-65
2022/12/06 12:16:23;;;;;;;7.38;5.80;;;;;;;;;;4916428;29;20044;-64
2022/12/06 12:18:50;;;;;;;7.05;5.20;;;;;;;;;;4916519;29;20048;-65
2022/12/06 12:21:27;;;;;;;8.20;5.88;;;;;;;;;;4916807;29;20043;-63
2022/12/06 12:23:54;;;;;;;10.75;6.88;;;;;;;;;;4916914;29;20047;-62
2022/12/06 12:26:21;;;;;;;8.25;6.30;;;;;;;;;;4916227;29;20505;-64
2022/12/06 12:29:04;;;;;;;8.57;5.85;;;;;;;;;;4916846;29;20051;-63
2022/12/06 12:31:30;;;;;;;5.47;4.78;;;;;;;;;;4900153;29;20044;-64
2022/12/06 12:34:16;;;;;;;7.50;5.25;;;;;;;;;;4917007;29;20462;-64
2022/12/06 12:36:50;;;;;;;7.20;5.10;;;;;;;;;;4899279;29;20051;-64
2022/12/06 12:39:43;;;;;;;13.45;7.88;;;;;;;;;;4916650;29;20473;-64
2022/12/06 12:42:25;;;;;;;8.13;5.07;;;;;;;;;;4913036;29;20060;-64
2022/12/06 12:44:53;;;;;;;5.85;4.65;;;;;;;;;;4899541;29;20493;-63
2022/12/06 12:47:20;;;;;;;6.25;4.90;;;;;;;;;;4916103;29;20044;-63
2022/12/06 12:49:58;;;;;;;5.55;4.10;;;;;;;;;;4916789;29;20036;-63
2022/12/06 12:52:27;;;;;;;8.40;4.82;;;;;;;;;;4916366;29;20575;-64
2022/12/06 12:54:58;;;;;;;5.72;4.72;;;;;;;;;;4916487;29;20044;-63
2022/12/06 12:57:25;;;;;;;5.78;4.22;;;;;;;;;;4916054;29;20063;-63
2022/12/06 12:59:51;;;;;;;7.00;5.07;;;;;;;;;;4899350;29;20543;-63
2022/12/06 13:02:28;;;;;;;12.57;5.75;;;;;;;;;;4916939;29;20050;-64
2022/12/06 13:05:13;;;;;;;8.60;4.45;;;;;;;;;;4884008;29;20084;-63
2022/12/06 13:08:03;;;;;;;6.50;4.32;;;;;;;;;;4916864;29;20477;-63
2022/12/06 13:10:35;;;;;;;4.68;3.60;;;;;;;;;;4916837;29;20052;-64
2022/12/06 13:13:04;;;;;;;8.90;5.07;;;;;;;;;;4916713;29;20059;-65
2022/12/06 13:15:30;;;;;;;6.00;3.97;;;;;;;;;;4899069;29;20099;-63
2022/12/06 13:18:20;;;;;;;8.25;5.78;;;;;;;;;;4916113;29;20040;-63
2022/12/06 13:20:47;;;;;;;5.82;4.13;;;;;;;;;;4907378;29;20059;-71
2022/12/06 13:23:15;;;;;;;5.43;4.50;;;;;;;;;;4899225;29;20501;-65
2022/12/06 13:25:45;;;;;;;6.05;4.82;;;;;;;;;;4898584;29;20095;-63
2022/12/06 13:28:16;;;;;;;6.72;5.40;;;;;;;;;;4899049;29;20044;-63
2022/12/06 13:30:42;;;;;;;5.70;4.75;;;;;;;;;;4915975;29;20473;-64
2022/12/06 13:33:12;;;;;;;5.70;4.22;;;;;;;;;;4899296;29;20044;-63
2022/12/06 13:36:06;;;;;;;5.97;4.50;;;;;;;;;;4899195;29;20651;-65
2022/12/06 13:38:34;;;;;;;6.55;4.68;;;;;;;;;;4899444;29;20048;-64
2022/12/06 13:41:02;;;;;;;5.15;4.65;;;;;;;;;;4899097;29;20052;-64
2022/12/06 13:43:28;;;;;;;6.38;4.65;;;;;;;;;;4916083;29;20181;-64
2022/12/06 13:46:15;;;;;;;5.85;5.25;;;;;;;;;;4915740;29;20048;-62
2022/12/06 13:48:41;;;;;;;5.80;5.15;;;;;;;;;;4921782;29;20054;-63
2022/12/06 13:51:34;;;;;;;4.68;4.13;;;;;;;;;;4919403;29;20481;-63
2022/12/06 13:54:03;;;;;;;5.82;5.20;;;;;;;;;;4914539;29;20656;-63
2022/12/06 13:56:33;;;;;;;5.97;5.38;;;;;;;;;;4919875;29;20048;-63
2022/12/06 13:59:20;;;;;;;6.55;5.47;;;;;;;;;;4920154;29;20058;-64
2022/12/06 14:01:48;;;;;;;7.60;5.70;;;;;;;;;;4906808;29;20112;-63
2022/12/06 14:04:35;;;;;;;5.55;4.97;;;;;;;;;;4903494;29;20044;-63
2022/12/06 14:07:02;;;;;;;6.63;5.40;;;;;;;;;;4903410;29;20044;-63
2022/12/06 14:09:35;;;;;;;7.72;5.85;;;;;;;;;;4920447;29;20044;-64
2022/12/06 14:12:05;;;;;;;6.43;5.03;;;;;;;;;;4920039;29;20044;-63
2022/12/06 14:14:32;;;;;;;6.35;5.05;;;;;;;;;;4903465;29;20063;-64
2022/12/06 14:17:04;;;;;;;7.95;5.90;;;;;;;;;;4919024;29;20060;-64
2022/12/06 14:19:37;;;;;;;7.35;5.88;;;;;;;;;;4919627;29;20040;-64
2022/12/06 14:22:16;;;;;;;5.75;5.15;;;;;;;;;;4920032;29;20056;-64
2022/12/06 14:24:54;;;;;;;7.45;5.93;;;;;;;;;;4903074;29;20113;-64
2022/12/06 14:27:22;;;;;;;6.85;6.03;;;;;;;;;;4920743;29;20489;-63
2022/12/06 14:30:07;;;;;;;7.45;6.47;;;;;;;;;;4920141;29;20044;-63
2022/12/06 14:32:37;;;;;;;7.75;5.68;;;;;;;;;;4920059;29;20058;-63
2022/12/06 14:35:27;;;;;;;7.50;5.88;;;;;;;;;;4919571;29;20048;-63
2022/12/06 14:37:55;;;;;;;8.48;5.53;;;;;;;;;;4910630;29;20143;-63
2022/12/06 14:42:23;;;;;;;8.27;6.03;;;;;;;;;;4919420;29;20127;-62
2022/12/06 14:43:17;;;;;;;7.53;5.75;;;;;;;;;;4920438;29;20408;-64
2022/12/06 14:45:44;;;;;;;6.88;5.80;;;;;;;;;;4919833;29;20059;-63
2022/12/06 14:48:11;;;;;;;6.53;5.20;;;;;;;;;;4903669;29;20036;-61
2022/12/06 14:50:43;;;;;;;8.88;6.25;;;;;;;;;;4920106;29;20044;-63
2022/12/06 14:53:15;;;;;;;10.27;6.97;;;;;;;;;;4919743;29;20062;-63
2022/12/06 14:55:50;;;;;;;8.40;6.28;;;;;;;;;;4901544;29;20056;-63
2022/12/06 14:58:19;;;;;;;11.73;7.60;;;;;;;;;;4919583;29;20048;-63
2022/12/06 15:00:53;;;;;;;7.07;5.50;;;;;;;;;;4918866;29;20055;-63
2022/12/06 15:03:25;;;;;;;6.32;5.65;;;;;;;;;;4918589;29;20132;-65
2022/12/06 15:06:08;;;;;;;7.22;5.97;;;;;;;;;;4918002;29;20037;-64
2022/12/06 15:08:35;;;;;;;7.68;5.72;;;;;;;;;;4919127;29;20040;-64
2022/12/06 15:11:03;;;;;;;7.45;4.97;;;;;;;;;;4918891;29;20036;-64
2022/12/06 15:13:29;;;;;;;6.45;5.13;;;;;;;;;;4918285;29;20044;-62
2022/12/06 15:16:08;;;;;;;7.72;4.88;;;;;;;;;;4918152;29;20047;-64
2022/12/06 15:18:38;;;;;;;6.82;5.20;;;;;;;;;;4919583;29;20635;-64